Time;durP1;ratioP1;P1;durP2;ratioP2;P2;SDS_P1;SDS_P2;PMS_P1;PMS_P2;Temp;Humidity;BMP_temperature;BMP_pressure;BME280_temperature;BME280_humidity;BME280_pressure;Samples;Min_cycle;Max_cycle;Signal;HPM_P1;HPM_P2
2021/11/11 00:00:06;;;;;;;;;;;21.50;40.50;;;;;;697130;28;1959;-84
2021/11/11 00:00:29;;;;;;;;;;;21.50;40.30;;;;;;697043;28;1056;-90
2021/11/11 00:00:50;;;;;;;;;;;21.50;40.30;;;;;;697244;28;869;-81
2021/11/11 00:01:11;;;;;;;;;;;21.50;41.00;;;;;;697369;28;798;-90
2021/11/11 00:01:31;;;;;;;;;;;21.50;40.70;;;;;;696847;28;1224;-89
2021/11/11 00:01:52;;;;;;;;;;;21.50;40.40;;;;;;696974;28;873;-84
2021/11/11 00:02:13;;;;;;;;;;;21.50;40.70;;;;;;696912;28;809;-79
2021/11/11 00:02:33;;;;;;;;;;;21.50;40.60;;;;;;696767;28;908;-81
2021/11/11 00:02:54;;;;;;;;;;;21.50;40.60;;;;;;697002;28;943;-89
2021/11/11 00:03:15;;;;;;;;;;;21.50;40.50;;;;;;696875;28;770;-84
2021/11/11 00:03:36;;;;;;;;;;;21.50;40.50;;;;;;697029;28;933;-82
2021/11/11 00:03:57;;;;;;;;;;;21.50;40.70;;;;;;696769;28;826;-81
2021/11/11 00:04:20;;;;;;;;;;;21.50;40.80;;;;;;694123;28;1461;-80
2021/11/11 00:04:41;;;;;;;;;;;21.50;40.60;;;;;;694148;28;829;-87
2021/11/11 00:05:02;;;;;;;;;;;21.40;40.60;;;;;;694073;28;882;-88
2021/11/11 00:05:23;;;;;;;;;;;21.50;40.50;;;;;;694026;28;1377;-90
2021/11/11 00:05:44;;;;;;;;;;;21.40;41.60;;;;;;694911;28;949;-86
2021/11/11 00:06:05;;;;;;;;;;;21.40;40.60;;;;;;696905;28;846;-82
2021/11/11 00:06:26;;;;;;;;;;;21.30;41.00;;;;;;696954;28;949;-89
2021/11/11 00:06:47;;;;;;;;;;;21.40;40.60;;;;;;697034;28;786;-83
2021/11/11 00:07:08;;;;;;;;;;;21.40;40.80;;;;;;699935;28;1471;-80
2021/11/11 00:07:29;;;;;;;;;;;21.50;40.70;;;;;;702436;28;778;-81
2021/11/11 00:07:49;;;;;;;;;;;21.40;40.60;;;;;;702412;28;964;-82
2021/11/11 00:08:10;;;;;;;;;;;21.40;40.80;;;;;;702438;28;794;-89
2021/11/11 00:08:30;;;;;;;;;;;21.40;40.50;;;;;;702460;28;809;-79
2021/11/11 00:08:51;;;;;;;;;;;21.40;40.50;;;;;;701778;28;980;-85
2021/11/11 00:09:12;;;;;;;;;;;21.40;40.70;;;;;;697040;28;869;-82
2021/11/11 00:09:34;;;;;;;;;;;21.40;40.50;;;;;;697111;28;861;-82
2021/11/11 00:09:57;;;;;;;;;;;21.40;40.50;;;;;;696780;28;913;-87
2021/11/11 00:10:19;;;;;;;;;;;21.40;40.50;;;;;;696883;28;1392;-88
2021/11/11 00:10:39;;;;;;;;;;;21.40;40.70;;;;;;696648;28;1486;-79
2021/11/11 00:11:00;;;;;;;;;;;21.40;41.00;;;;;;696876;28;822;-83
2021/11/11 00:11:21;;;;;;;;;;;21.40;40.80;;;;;;696948;28;932;-84
2021/11/11 00:11:42;;;;;;;;;;;21.40;40.50;;;;;;696894;28;858;-88
2021/11/11 00:12:03;;;;;;;;;;;21.40;41.10;;;;;;696978;28;896;-83
2021/11/11 00:12:25;;;;;;;;;;;21.40;40.70;;;;;;697175;28;845;-85
2021/11/11 00:12:47;;;;;;;;;;;21.40;40.50;;;;;;696989;28;886;-89
2021/11/11 00:13:07;;;;;;;;;;;21.40;40.50;;;;;;697124;28;837;-88
2021/11/11 00:13:28;;;;;;;;;;;21.40;40.80;;;;;;701707;28;1227;-83
2021/11/11 00:13:48;;;;;;;;;;;21.40;41.60;;;;;;702382;28;921;-85
2021/11/11 00:14:09;;;;;;;;;;;21.30;40.30;;;;;;702336;28;854;-80
2021/11/11 00:14:29;;;;;;;;;;;21.30;40.40;;;;;;699446;28;1484;-84
2021/11/11 00:14:50;;;;;;;;;;;21.30;40.50;;;;;;699757;28;522;-87
2021/11/11 00:15:12;;;;;;;;;;;21.30;40.30;;;;;;699407;28;920;-87
2021/11/11 00:15:32;;;;;;;;;;;21.30;40.50;;;;;;696800;28;877;-86
2021/11/11 00:15:53;;;;;;;;;;;21.30;40.60;;;;;;696929;28;798;-90
2021/11/11 00:16:13;;;;;;;;;;;21.30;40.50;;;;;;696861;28;845;-87
2021/11/11 00:16:34;;;;;;;;;;;21.30;40.80;;;;;;696940;28;791;-83
2021/11/11 00:16:55;;;;;;;;;;;21.30;40.70;;;;;;697129;28;813;-90
2021/11/11 00:17:16;;;;;;;;;;;21.30;40.60;;;;;;696500;28;833;-82
2021/11/11 00:17:37;;;;;;;;;;;21.30;40.50;;;;;;694002;28;842;-82
2021/11/11 00:17:57;;;;;;;;;;;21.30;40.50;;;;;;691277;28;909;-91
2021/11/11 00:18:18;;;;;;;;;;;21.30;40.50;;;;;;691511;28;893;-89
2021/11/11 00:18:39;;;;;;;;;;;21.30;40.60;;;;;;691293;28;845;-88
2021/11/11 00:19:00;;;;;;;;;;;21.30;40.60;;;;;;691801;28;850;-89
2021/11/11 00:19:20;;;;;;;;;;;21.30;40.60;;;;;;694583;28;791;-86
2021/11/11 00:19:41;;;;;;;;;;;21.30;40.70;;;;;;696913;28;858;-89
2021/11/11 00:20:05;;;;;;;;;;;21.30;40.60;;;;;;696931;28;1942;-87
2021/11/11 00:20:27;;;;;;;;;;;21.30;40.60;;;;;;696748;28;869;-87
2021/11/11 00:20:49;;;;;;;;;;;21.30;40.60;;;;;;696839;28;1200;-83
2021/11/11 00:21:12;;;;;;;;;;;21.30;40.80;;;;;;696733;28;920;-79
2021/11/11 00:21:33;;;;;;;;;;;21.30;40.70;;;;;;696837;28;827;-86
2021/11/11 00:21:53;;;;;;;;;;;21.30;40.60;;;;;;696935;28;901;-85
2021/11/11 00:22:14;;;;;;;;;;;21.30;40.70;;;;;;696892;28;766;-81
2021/11/11 00:22:35;;;;;;;;;;;21.30;40.60;;;;;;696821;28;882;-84
2021/11/11 00:22:56;;;;;;;;;;;21.30;40.50;;;;;;696897;28;794;-84
2021/11/11 00:23:17;;;;;;;;;;;21.30;40.50;;;;;;697133;28;913;-80
2021/11/11 00:23:37;;;;;;;;;;;21.20;40.40;;;;;;697057;28;826;-85
2021/11/11 00:23:58;;;;;;;;;;;21.20;40.40;;;;;;696929;28;905;-92
2021/11/11 00:24:18;;;;;;;;;;;21.20;40.50;;;;;;697177;28;884;-83
2021/11/11 00:24:39;;;;;;;;;;;21.20;40.50;;;;;;697092;28;806;-85
2021/11/11 00:25:00;;;;;;;;;;;21.20;40.50;;;;;;696962;28;930;-90
2021/11/11 00:25:21;;;;;;;;;;;21.20;40.50;;;;;;697198;28;826;-85
2021/11/11 00:25:42;;;;;;;;;;;21.20;40.50;;;;;;697038;28;798;-85
2021/11/11 00:26:03;;;;;;;;;;;21.20;40.50;;;;;;696939;28;854;-91
2021/11/11 00:26:23;;;;;;;;;;;21.30;40.50;;;;;;697105;28;868;-87
2021/11/11 00:26:45;;;;;;;;;;;21.30;40.70;;;;;;697032;28;893;-92
2021/11/11 00:27:05;;;;;;;;;;;21.20;40.50;;;;;;696868;28;953;-83
2021/11/11 00:27:26;;;;;;;;;;;21.20;40.40;;;;;;696954;28;803;-85
2021/11/11 00:27:46;;;;;;;;;;;21.20;40.50;;;;;;697246;28;792;-83
2021/11/11 00:28:07;;;;;;;;;;;21.20;40.60;;;;;;697033;28;802;-86
2021/11/11 00:28:28;;;;;;;;;;;21.20;40.80;;;;;;696956;28;805;-88
2021/11/11 00:28:49;;;;;;;;;;;21.20;40.60;;;;;;697046;28;885;-81
2021/11/11 00:29:10;;;;;;;;;;;21.20;40.50;;;;;;696939;28;806;-90
2021/11/11 00:29:30;;;;;;;;;;;21.30;40.60;;;;;;696989;28;865;-84
2021/11/11 00:29:51;;;;;;;;;;;21.30;40.50;;;;;;697136;28;783;-85
2021/11/11 00:30:12;;;;;;;;;;;21.30;40.80;;;;;;701845;28;1121;-83
2021/11/11 00:30:34;;;;;;;;;;;21.20;40.70;;;;;;702272;28;1098;-86
2021/11/11 00:30:54;;;;;;;;;;;21.20;40.90;;;;;;702387;28;1415;-85
2021/11/11 00:31:15;;;;;;;;;;;21.20;40.50;;;;;;702268;28;1153;-80
2021/11/11 00:31:36;;;;;;;;;;;21.20;40.50;;;;;;702519;28;794;-89
2021/11/11 00:31:56;;;;;;;;;;;21.20;40.50;;;;;;701402;28;797;-79
2021/11/11 00:32:17;;;;;;;;;;;21.30;40.60;;;;;;697123;28;885;-86
2021/11/11 00:32:39;;;;;;;;;;;21.20;40.60;;;;;;697020;28;774;-81
2021/11/11 00:33:00;;;;;;;;;;;21.30;40.70;;;;;;696989;28;845;-79
2021/11/11 00:33:20;;;;;;;;;;;21.20;40.50;;;;;;697328;28;711;-77
2021/11/11 00:33:41;;;;;;;;;;;21.20;40.50;;;;;;697066;28;861;-83
2021/11/11 00:34:02;;;;;;;;;;;21.20;40.50;;;;;;697968;28;1365;-80
2021/11/11 00:34:22;;;;;;;;;;;21.30;40.60;;;;;;698298;28;868;-77
2021/11/11 00:34:44;;;;;;;;;;;21.20;40.40;;;;;;698220;28;877;-79
2021/11/11 00:35:05;;;;;;;;;;;21.20;40.60;;;;;;697771;28;886;-81
2021/11/11 00:35:27;;;;;;;;;;;21.20;40.30;;;;;;697905;28;917;-77
2021/11/11 00:35:47;;;;;;;;;;;21.20;40.20;;;;;;697870;28;829;-85
2021/11/11 00:36:08;;;;;;;;;;;21.20;40.20;;;;;;697649;28;846;-79
2021/11/11 00:36:29;;;;;;;;;;;21.20;40.40;;;;;;697898;28;977;-80
2021/11/11 00:36:49;;;;;;;;;;;21.20;40.50;;;;;;698202;28;965;-80
2021/11/11 00:37:10;;;;;;;;;;;21.20;40.50;;;;;;697969;28;925;-78
2021/11/11 00:37:30;;;;;;;;;;;21.20;40.50;;;;;;698369;28;802;-80
2021/11/11 00:37:52;;;;;;;;;;;21.20;40.30;;;;;;697854;28;778;-77
2021/11/11 00:38:13;;;;;;;;;;;21.10;40.40;;;;;;697716;28;1165;-83
2021/11/11 00:38:34;;;;;;;;;;;21.10;40.40;;;;;;697275;28;866;-86
2021/11/11 00:38:55;;;;;;;;;;;21.10;40.40;;;;;;697886;28;894;-88
2021/11/11 00:39:15;;;;;;;;;;;21.10;40.50;;;;;;697936;28;869;-80
2021/11/11 00:39:36;;;;;;;;;;;21.10;40.50;;;;;;698031;28;917;-83
2021/11/11 00:39:56;;;;;;;;;;;21.10;40.60;;;;;;697543;28;1910;-80
2021/11/11 00:40:17;;;;;;;;;;;21.10;40.50;;;;;;698009;28;980;-82
2021/11/11 00:40:38;;;;;;;;;;;21.00;40.50;;;;;;697820;28;846;-80
2021/11/11 00:40:58;;;;;;;;;;;21.00;40.60;;;;;;698116;28;862;-87
2021/11/11 00:41:19;;;;;;;;;;;21.00;41.20;;;;;;698144;28;886;-84
2021/11/11 00:41:39;;;;;;;;;;;21.10;41.30;;;;;;697885;28;1077;-83
2021/11/11 00:42:00;;;;;;;;;;;21.10;40.70;;;;;;697637;28;913;-86
2021/11/11 00:42:21;;;;;;;;;;;21.00;40.70;;;;;;698065;28;1015;-85
2021/11/11 00:42:41;;;;;;;;;;;21.10;40.70;;;;;;697957;28;807;-83
2021/11/11 00:43:02;;;;;;;;;;;21.00;40.60;;;;;;697731;28;1421;-84
2021/11/11 00:43:23;;;;;;;;;;;21.00;40.60;;;;;;696864;28;766;-80
2021/11/11 00:43:43;;;;;;;;;;;21.00;41.10;;;;;;696860;28;834;-79
2021/11/11 00:44:04;;;;;;;;;;;21.00;41.10;;;;;;696911;28;813;-78
2021/11/11 00:44:25;;;;;;;;;;;21.00;40.80;;;;;;697125;28;814;-78
2021/11/11 00:44:46;;;;;;;;;;;20.30;40.50;;;;;;696898;28;826;-78
2021/11/11 00:45:07;;;;;;;;;;;21.00;40.90;;;;;;696648;28;916;-79
2021/11/11 00:45:28;;;;;;;;;;;21.00;41.00;;;;;;693916;28;838;-78
2021/11/11 00:45:49;;;;;;;;;;;21.00;40.80;;;;;;693966;28;863;-79
2021/11/11 00:46:09;;;;;;;;;;;21.00;41.00;;;;;;693918;28;882;-78
2021/11/11 00:46:30;;;;;;;;;;;21.00;41.00;;;;;;693953;28;779;-80
2021/11/11 00:46:51;;;;;;;;;;;21.00;41.00;;;;;;691663;28;1423;-77
2021/11/11 00:47:12;;;;;;;;;;;21.00;40.80;;;;;;694333;28;874;-79
2021/11/11 00:47:33;;;;;;;;;;;20.90;40.80;;;;;;696666;28;858;-77
2021/11/11 00:47:55;;;;;;;;;;;21.00;41.10;;;;;;696907;28;818;-82
2021/11/11 00:48:15;;;;;;;;;;;21.00;41.10;;;;;;696723;28;869;-81
2021/11/11 00:48:36;;;;;;;;;;;21.00;41.00;;;;;;696685;28;953;-78
2021/11/11 00:48:57;;;;;;;;;;;21.00;40.90;;;;;;696911;28;921;-78
2021/11/11 00:49:17;;;;;;;;;;;21.00;41.00;;;;;;696978;28;914;-80
2021/11/11 00:49:38;;;;;;;;;;;21.00;41.00;;;;;;697111;28;845;-78
2021/11/11 00:49:59;;;;;;;;;;;21.00;42.00;;;;;;696989;28;787;-79
2021/11/11 00:50:21;;;;;;;;;;;21.00;41.00;;;;;;697061;28;774;-78
2021/11/11 00:50:42;;;;;;;;;;;21.00;41.10;;;;;;696911;28;870;-79
2021/11/11 00:51:02;;;;;;;;;;;21.00;41.30;;;;;;696954;28;934;-79
2021/11/11 00:51:23;;;;;;;;;;;21.00;41.30;;;;;;702518;28;853;-82
2021/11/11 00:51:43;;;;;;;;;;;21.00;41.60;;;;;;702190;28;1490;-78
2021/11/11 00:52:04;;;;;;;;;;;21.00;41.70;;;;;;702355;28;825;-78
2021/11/11 00:52:25;;;;;;;;;;;21.00;42.10;;;;;;702690;28;786;-78
2021/11/11 00:52:46;;;;;;;;;;;21.00;42.40;;;;;;702427;28;778;-79
2021/11/11 00:53:07;;;;;;;;;;;21.00;42.30;;;;;;701917;28;794;-79
2021/11/11 00:53:27;;;;;;;;;;;21.10;42.40;;;;;;697020;28;763;-80
2021/11/11 00:53:48;;;;;;;;;;;21.10;42.60;;;;;;697145;28;905;-85
2021/11/11 00:54:08;;;;;;;;;;;21.10;42.50;;;;;;701753;28;1210;-78
2021/11/11 00:54:35;;;;;;;;;;;21.20;42.60;;;;;;699493;28;1570;-83
2021/11/11 00:54:56;;;;;;;;;;;21.20;42.50;;;;;;699740;28;809;-78
2021/11/11 00:55:17;;;;;;;;;;;21.20;42.50;;;;;;699621;28;1288;-84
2021/11/11 00:55:37;;;;;;;;;;;21.30;42.50;;;;;;699465;28;834;-81
2021/11/11 00:56:04;;;;;;;;;;;21.30;42.40;;;;;;698599;28;837;-91
2021/11/11 00:56:24;;;;;;;;;;;22.80;43.10;;;;;;697029;28;936;-79
2021/11/11 00:56:45;;;;;;;;;;;21.40;42.30;;;;;;696965;28;798;-81
2021/11/11 00:57:06;;;;;;;;;;;21.40;42.30;;;;;;696959;28;868;-82
2021/11/11 00:57:27;;;;;;;;;;;21.40;42.30;;;;;;696975;28;794;-85
2021/11/11 00:57:48;;;;;;;;;;;21.40;41.40;;;;;;697009;28;814;-90
2021/11/11 00:58:08;;;;;;;;;;;21.40;41.30;;;;;;696977;28;865;-85
2021/11/11 00:58:29;;;;;;;;;;;21.50;42.20;;;;;;696868;28;790;-90
2021/11/11 00:58:50;;;;;;;;;;;21.50;42.10;;;;;;697058;28;861;-86
2021/11/11 00:59:11;;;;;;;;;;;21.50;42.00;;;;;;696866;28;914;-84
2021/11/11 00:59:31;;;;;;;;;;;21.50;42.00;;;;;;696869;28;793;-81
2021/11/11 00:59:52;;;;;;;;;;;21.50;42.00;;;;;;696940;28;786;-88
2021/11/11 01:00:14;;;;;;;;;;;21.50;41.90;;;;;;696838;28;898;-87
2021/11/11 01:00:38;;;;;;;;;;;21.60;42.00;;;;;;696710;28;982;-82
2021/11/11 01:01:01;;;;;;;;;;;21.60;42.00;;;;;;696883;28;968;-87
2021/11/11 01:01:21;;;;;;;;;;;21.60;41.90;;;;;;697107;28;806;-81
2021/11/11 01:01:42;;;;;;;;;;;21.60;41.90;;;;;;696849;28;846;-89
2021/11/11 01:02:07;;;;;;;;;;;21.60;41.90;;;;;;696901;28;802;-87
2021/11/11 01:02:28;;;;;;;;;;;21.60;42.00;;;;;;696983;28;869;-89
2021/11/11 01:02:50;;;;;;;;;;;21.60;41.90;;;;;;696967;28;1064;-87
2021/11/11 01:03:12;;;;;;;;;;;21.60;41.90;;;;;;697029;28;826;-81
2021/11/11 01:03:40;;;;;;;;;;;21.70;42.00;;;;;;696926;28;822;-80
2021/11/11 01:04:01;;;;;;;;;;;21.70;41.90;;;;;;696613;28;833;-80
2021/11/11 01:04:21;;;;;;;;;;;21.70;42.00;;;;;;696664;28;1015;-86
2021/11/11 01:04:42;;;;;;;;;;;21.70;42.00;;;;;;696872;28;862;-86
2021/11/11 01:05:03;;;;;;;;;;;21.70;41.90;;;;;;696841;28;639;-84
2021/11/11 01:05:24;;;;;;;;;;;21.70;42.00;;;;;;696991;28;909;-81
2021/11/11 01:05:44;;;;;;;;;;;21.70;41.90;;;;;;696974;28;839;-84
2021/11/11 01:06:05;;;;;;;;;;;21.70;41.90;;;;;;696881;28;1019;-84
2021/11/11 01:06:27;;;;;;;;;;;21.70;42.00;;;;;;696980;28;897;-82
2021/11/11 01:06:48;;;;;;;;;;;21.80;42.00;;;;;;696757;28;819;-87
2021/11/11 01:07:09;;;;;;;;;;;21.70;41.90;;;;;;696132;28;1221;-87
2021/11/11 01:07:29;;;;;;;;;;;21.80;41.90;;;;;;696748;28;818;-86
2021/11/11 01:07:51;;;;;;;;;;;21.80;41.90;;;;;;696677;28;906;-88
2021/11/11 01:08:11;;;;;;;;;;;21.80;41.90;;;;;;696755;28;878;-83
2021/11/11 01:08:32;;;;;;;;;;;21.80;41.90;;;;;;696720;28;771;-88
2021/11/11 01:08:53;;;;;;;;;;;21.80;41.80;;;;;;696733;28;778;-80
2021/11/11 01:09:13;;;;;;;;;;;21.80;41.90;;;;;;696885;28;814;-82
2021/11/11 01:09:35;;;;;;;;;;;21.80;41.90;;;;;;701670;28;869;-85
2021/11/11 01:09:55;;;;;;;;;;;21.80;41.80;;;;;;702330;28;793;-80
2021/11/11 01:10:17;;;;;;;;;;;21.80;41.90;;;;;;702377;28;806;-85
2021/11/11 01:10:38;;;;;;;;;;;21.90;41.90;;;;;;702153;28;917;-82
2021/11/11 01:10:59;;;;;;;;;;;21.80;41.90;;;;;;702200;28;767;-86
2021/11/11 01:11:20;;;;;;;;;;;21.80;41.80;;;;;;700951;28;909;-89
2021/11/11 01:11:41;;;;;;;;;;;21.90;42.00;;;;;;696837;28;834;-84
2021/11/11 01:12:02;;;;;;;;;;;21.90;41.90;;;;;;696885;28;829;-83
2021/11/11 01:12:22;;;;;;;;;;;21.80;43.00;;;;;;697081;28;798;-83
2021/11/11 01:12:44;;;;;;;;;;;21.90;41.90;;;;;;696822;28;822;-88
2021/11/11 01:13:04;;;;;;;;;;;21.90;41.90;;;;;;696577;28;1227;-86
2021/11/11 01:13:25;;;;;;;;;;;21.80;41.90;;;;;;696744;28;815;-83
2021/11/11 01:13:46;;;;;;;;;;;21.90;42.00;;;;;;696749;28;818;-86
2021/11/11 01:14:06;;;;;;;;;;;21.90;42.00;;;;;;696724;28;802;-85
2021/11/11 01:14:27;;;;;;;;;;;21.90;42.00;;;;;;696788;28;842;-89
2021/11/11 01:14:48;;;;;;;;;;;21.90;42.00;;;;;;696782;28;1010;-84
2021/11/11 01:15:10;;;;;;;;;;;21.90;42.00;;;;;;696513;28;1340;-87
2021/11/11 01:15:31;;;;;;;;;;;21.90;42.00;;;;;;696505;28;968;-85
2021/11/11 01:15:52;;;;;;;;;;;21.90;42.00;;;;;;696666;28;782;-89
2021/11/11 01:16:12;;;;;;;;;;;21.90;42.00;;;;;;696735;28;771;-86
2021/11/11 01:16:33;;;;;;;;;;;21.90;42.00;;;;;;696690;28;810;-89
2021/11/11 01:16:54;;;;;;;;;;;21.90;42.10;;;;;;696785;28;786;-87
2021/11/11 01:17:14;;;;;;;;;;;21.90;42.00;;;;;;696829;28;925;-85
2021/11/11 01:17:35;;;;;;;;;;;21.90;42.00;;;;;;696870;28;805;-81
2021/11/11 01:17:56;;;;;;;;;;;21.90;42.00;;;;;;696941;28;787;-79
2021/11/11 01:18:17;;;;;;;;;;;21.90;42.00;;;;;;697017;28;846;-88
2021/11/11 01:18:37;;;;;;;;;;;21.90;42.00;;;;;;696810;28;1349;-87
2021/11/11 01:18:58;;;;;;;;;;;21.90;41.90;;;;;;696806;28;846;-87
2021/11/11 01:19:19;;;;;;;;;;;21.90;42.00;;;;;;696951;28;869;-87
2021/11/11 01:19:40;;;;;;;;;;;21.90;42.10;;;;;;696707;28;1352;-85
2021/11/11 01:20:00;;;;;;;;;;;21.90;42.00;;;;;;696766;28;1898;-86
2021/11/11 01:20:21;;;;;;;;;;;21.90;42.10;;;;;;697053;28;822;-81
2021/11/11 01:20:42;;;;;;;;;;;21.90;42.10;;;;;;696830;28;1039;-89
2021/11/11 01:21:03;;;;;;;;;;;21.90;42.10;;;;;;696824;28;864;-87
2021/11/11 01:21:23;;;;;;;;;;;21.90;42.10;;;;;;696936;28;504;-85
2021/11/11 01:21:44;;;;;;;;;;;21.90;42.00;;;;;;696845;28;810;-89
2021/11/11 01:22:05;;;;;;;;;;;21.90;42.10;;;;;;696839;28;770;-87
2021/11/11 01:22:26;;;;;;;;;;;21.90;42.10;;;;;;696994;28;841;-81
2021/11/11 01:22:47;;;;;;;;;;;21.90;42.10;;;;;;696990;28;929;-82
2021/11/11 01:23:08;;;;;;;;;;;21.90;42.10;;;;;;696761;28;906;-90
2021/11/11 01:23:28;;;;;;;;;;;21.90;42.10;;;;;;696793;28;917;-86
2021/11/11 01:23:49;;;;;;;;;;;22.00;42.20;;;;;;696878;28;850;-85
2021/11/11 01:24:10;;;;;;;;;;;21.90;42.10;;;;;;696772;28;969;-87
2021/11/11 01:24:30;;;;;;;;;;;21.90;42.10;;;;;;696895;28;845;-84
2021/11/11 01:24:51;;;;;;;;;;;21.90;42.20;;;;;;697003;28;833;-90
2021/11/11 01:25:14;;;;;;;;;;;22.00;42.20;;;;;;696830;28;822;-87
2021/11/11 01:25:37;;;;;;;;;;;22.00;42.20;;;;;;697006;28;798;-84
2021/11/11 01:25:58;;;;;;;;;;;21.90;42.10;;;;;;696471;28;865;-86
2021/11/11 01:26:18;;;;;;;;;;;21.90;42.10;;;;;;696846;28;857;-89
2021/11/11 01:26:39;;;;;;;;;;;22.00;42.30;;;;;;696681;28;985;-88
2021/11/11 01:26:59;;;;;;;;;;;21.90;42.10;;;;;;696613;28;834;-88
2021/11/11 01:27:20;;;;;;;;;;;21.90;42.20;;;;;;696734;28;886;-89
2021/11/11 01:27:41;;;;;;;;;;;22.00;42.30;;;;;;696522;28;930;-88
2021/11/11 01:28:02;;;;;;;;;;;21.90;42.20;;;;;;696724;28;806;-89
2021/11/11 01:28:22;;;;;;;;;;;22.00;42.20;;;;;;696910;28;905;-85
2021/11/11 01:28:43;;;;;;;;;;;21.90;42.20;;;;;;696736;28;924;-87
2021/11/11 01:29:04;;;;;;;;;;;22.00;42.20;;;;;;696782;28;864;-86
2021/11/11 01:29:24;;;;;;;;;;;22.00;42.30;;;;;;696849;28;845;-83
2021/11/11 01:29:45;;;;;;;;;;;22.00;42.30;;;;;;696831;28;1307;-79
2021/11/11 01:30:06;;;;;;;;;;;22.00;43.40;;;;;;696774;28;868;-86
2021/11/11 01:30:26;;;;;;;;;;;22.00;42.20;;;;;;696373;28;1326;-85
2021/11/11 01:30:47;;;;;;;;;;;22.00;42.30;;;;;;696766;28;838;-88
2021/11/11 01:31:07;;;;;;;;;;;22.00;42.30;;;;;;696637;28;819;-85
2021/11/11 01:31:28;;;;;;;;;;;21.90;42.40;;;;;;696436;28;1309;-88
2021/11/11 01:31:49;;;;;;;;;;;22.00;42.30;;;;;;696724;28;851;-87
2021/11/11 01:32:09;;;;;;;;;;;22.00;42.30;;;;;;696648;28;850;-83
2021/11/11 01:32:30;;;;;;;;;;;22.00;42.40;;;;;;696730;28;889;-87
2021/11/11 01:32:51;;;;;;;;;;;22.00;42.40;;;;;;696832;28;906;-88
2021/11/11 01:33:12;;;;;;;;;;;22.00;42.40;;;;;;696793;28;795;-86
2021/11/11 01:33:33;;;;;;;;;;;22.00;42.40;;;;;;696760;28;1332;-85
2021/11/11 01:33:53;;;;;;;;;;;22.00;42.30;;;;;;696909;28;822;-84
2021/11/11 01:34:14;;;;;;;;;;;22.00;42.50;;;;;;696746;28;786;-87
2021/11/11 01:34:35;;;;;;;;;;;22.00;42.50;;;;;;696839;28;838;-82
2021/11/11 01:34:56;;;;;;;;;;;22.00;42.50;;;;;;696975;28;806;-82
2021/11/11 01:35:17;;;;;;;;;;;22.00;42.40;;;;;;696796;28;1034;-85
2021/11/11 01:35:37;;;;;;;;;;;22.00;42.40;;;;;;701993;28;830;-87
2021/11/11 01:35:58;;;;;;;;;;;22.00;42.40;;;;;;702148;28;841;-90
2021/11/11 01:36:19;;;;;;;;;;;22.00;42.40;;;;;;702179;28;873;-87
2021/11/11 01:36:39;;;;;;;;;;;22.00;42.60;;;;;;702140;28;805;-81
2021/11/11 01:37:00;;;;;;;;;;;22.00;42.40;;;;;;702116;28;810;-89
2021/11/11 01:37:21;;;;;;;;;;;22.00;43.60;;;;;;701557;28;793;-84
2021/11/11 01:37:44;;;;;;;;;;;22.00;42.50;;;;;;696854;28;821;-82
2021/11/11 01:38:04;;;;;;;;;;;22.00;42.40;;;;;;696851;28;825;-86
2021/11/11 01:38:25;;;;;;;;;;;22.00;42.40;;;;;;696755;28;917;-82
2021/11/11 01:38:46;;;;;;;;;;;22.00;42.50;;;;;;696850;28;834;-86
2021/11/11 01:39:07;;;;;;;;;;;22.00;42.50;;;;;;696771;28;842;-87
2021/11/11 01:39:27;;;;;;;;;;;22.00;42.50;;;;;;696738;28;861;-89
2021/11/11 01:39:48;;;;;;;;;;;22.00;42.50;;;;;;696925;28;857;-89
2021/11/11 01:40:09;;;;;;;;;;;22.00;42.50;;;;;;696843;28;1961;-88
2021/11/11 01:40:30;;;;;;;;;;;22.00;42.60;;;;;;696089;28;1287;-84
2021/11/11 01:40:50;;;;;;;;;;;22.00;42.60;;;;;;696716;28;1011;-83
2021/11/11 01:41:11;;;;;;;;;;;22.00;42.70;;;;;;696589;28;932;-89
2021/11/11 01:41:32;;;;;;;;;;;22.00;42.50;;;;;;696621;28;922;-89
2021/11/11 01:41:53;;;;;;;;;;;22.00;42.50;;;;;;696693;28;886;-83
2021/11/11 01:42:13;;;;;;;;;;;22.00;42.50;;;;;;696633;28;802;-82
2021/11/11 01:43:00;;;;;;;;;;;22.00;42.60;;;;;;696795;28;860;-86
2021/11/11 01:43:21;;;;;;;;;;;22.00;42.60;;;;;;693711;28;1374;-89
2021/11/11 01:43:42;;;;;;;;;;;22.00;42.50;;;;;;693689;28;874;-89
2021/11/11 01:44:03;;;;;;;;;;;22.00;42.60;;;;;;693707;28;969;-82
2021/11/11 01:44:24;;;;;;;;;;;22.00;42.60;;;;;;693797;28;885;-86
2021/11/11 01:44:51;;;;;;;;;;;22.00;42.70;;;;;;693641;28;871;-86
2021/11/11 01:45:12;;;;;;;;;;;22.00;42.70;;;;;;693747;28;869;-88
2021/11/11 01:45:34;;;;;;;;;;;22.00;42.70;;;;;;693668;28;937;-82
2021/11/11 01:45:55;;;;;;;;;;;22.00;42.80;;;;;;693733;28;783;-79
2021/11/11 01:46:16;;;;;;;;;;;22.00;42.80;;;;;;693766;28;950;-88
2021/11/11 01:46:37;;;;;;;;;;;22.00;42.70;;;;;;693707;28;772;-84
2021/11/11 01:46:57;;;;;;;;;;;22.00;42.70;;;;;;693701;28;885;-85
2021/11/11 01:47:18;;;;;;;;;;;22.00;42.70;;;;;;693779;28;929;-86
2021/11/11 01:47:39;;;;;;;;;;;21.90;42.60;;;;;;693692;28;937;-88
2021/11/11 01:48:00;;;;;;;;;;;21.90;42.60;;;;;;693689;28;851;-88
2021/11/11 01:48:21;;;;;;;;;;;21.90;42.60;;;;;;693796;28;881;-87
2021/11/11 01:48:41;;;;;;;;;;;21.90;42.60;;;;;;693823;28;830;-86
2021/11/11 01:49:02;;;;;;;;;;;21.90;42.60;;;;;;693687;28;1099;-91
2021/11/11 01:49:23;;;;;;;;;;;21.90;42.70;;;;;;693947;28;786;-87
2021/11/11 01:49:43;;;;;;;;;;;21.90;42.80;;;;;;693764;28;885;-83
2021/11/11 01:50:04;;;;;;;;;;;21.90;42.80;;;;;;693634;28;1356;-84
2021/11/11 01:50:26;;;;;;;;;;;21.90;42.60;;;;;;693761;28;901;-79
2021/11/11 01:50:47;;;;;;;;;;;21.90;42.70;;;;;;693812;28;878;-86
2021/11/11 01:51:08;;;;;;;;;;;21.90;42.70;;;;;;693744;28;841;-84
2021/11/11 01:51:30;;;;;;;;;;;21.90;42.80;;;;;;693632;28;927;-89
2021/11/11 01:51:52;;;;;;;;;;;21.90;42.70;;;;;;693814;28;906;-85
2021/11/11 01:52:13;;;;;;;;;;;21.90;42.90;;;;;;693848;28;842;-86
2021/11/11 01:52:34;;;;;;;;;;;21.90;42.90;;;;;;693634;28;932;-88
2021/11/11 01:52:56;;;;;;;;;;;21.90;43.00;;;;;;693831;28;897;-86
2021/11/11 01:53:17;;;;;;;;;;;21.90;43.00;;;;;;693768;28;900;-84
2021/11/11 01:53:37;;;;;;;;;;;21.90;42.90;;;;;;693703;28;949;-86
2021/11/11 01:53:58;;;;;;;;;;;21.90;42.90;;;;;;693736;28;925;-85
2021/11/11 01:54:19;;;;;;;;;;;21.90;42.90;;;;;;691029;28;889;-85
2021/11/11 01:54:40;;;;;;;;;;;21.90;43.00;;;;;;690923;28;993;-87
2021/11/11 01:55:00;;;;;;;;;;;21.90;43.00;;;;;;690986;28;874;-87
2021/11/11 01:55:22;;;;;;;;;;;21.90;43.00;;;;;;691081;28;993;-88
2021/11/11 01:55:44;;;;;;;;;;;21.90;43.10;;;;;;690998;28;877;-90
2021/11/11 01:56:04;;;;;;;;;;;21.90;43.10;;;;;;691578;28;858;-85
2021/11/11 01:56:25;;;;;;;;;;;21.90;43.20;;;;;;693944;28;820;-91
2021/11/11 01:56:46;;;;;;;;;;;21.90;43.10;;;;;;693730;28;822;-81
2021/11/11 01:57:07;;;;;;;;;;;21.90;43.20;;;;;;693718;28;806;-86
2021/11/11 01:57:28;;;;;;;;;;;21.90;43.10;;;;;;693875;28;514;-84
2021/11/11 01:57:51;;;;;;;;;;;21.90;43.00;;;;;;693809;28;853;-88
2021/11/11 01:58:12;;;;;;;;;;;21.90;43.00;;;;;;693737;28;797;-86
2021/11/11 01:58:32;;;;;;;;;;;21.90;43.20;;;;;;693825;28;826;-85
2021/11/11 01:58:53;;;;;;;;;;;21.90;43.30;;;;;;693729;28;893;-86
2021/11/11 01:59:15;;;;;;;;;;;21.90;43.00;;;;;;690952;28;929;-87
2021/11/11 01:59:35;;;;;;;;;;;21.90;43.10;;;;;;690912;28;849;-79
2021/11/11 01:59:56;;;;;;;;;;;21.90;43.20;;;;;;690938;28;1965;-84
2021/11/11 02:00:28;;;;;;;;;;;21.90;43.00;;;;;;691196;28;791;-89
2021/11/11 02:00:50;;;;;;;;;;;21.90;43.30;;;;;;691107;28;824;-88
2021/11/11 02:01:11;;;;;;;;;;;21.90;43.20;;;;;;693137;28;865;-91
2021/11/11 02:01:32;;;;;;;;;;;21.90;43.20;;;;;;693657;28;881;-86
2021/11/11 02:01:53;;;;;;;;;;;21.90;43.40;;;;;;693719;28;1101;-84
2021/11/11 02:02:23;;;;;;;;;;;21.90;43.10;;;;;;690843;28;1314;-89
2021/11/11 02:02:44;;;;;;;;;;;21.90;43.20;;;;;;690901;28;846;-87
2021/11/11 02:03:06;;;;;;;;;;;21.90;43.40;;;;;;690941;28;873;-83
2021/11/11 02:03:27;;;;;;;;;;;21.90;43.40;;;;;;691102;28;806;-88
2021/11/11 02:03:48;;;;;;;;;;;21.90;43.50;;;;;;691034;28;869;-88
2021/11/11 02:04:08;;;;;;;;;;;21.90;43.40;;;;;;692791;28;885;-89
2021/11/11 02:04:29;;;;;;;;;;;21.90;43.40;;;;;;693626;28;854;-90
2021/11/11 02:04:49;;;;;;;;;;;21.90;43.40;;;;;;693789;28;909;-85
2021/11/11 02:05:10;;;;;;;;;;;21.90;43.40;;;;;;693737;28;854;-91
2021/11/11 02:05:32;;;;;;;;;;;21.90;43.30;;;;;;693738;28;814;-87
2021/11/11 02:05:53;;;;;;;;;;;21.90;43.30;;;;;;693764;28;818;-85
2021/11/11 02:06:14;;;;;;;;;;;21.90;43.50;;;;;;693702;28;921;-89
2021/11/11 02:06:35;;;;;;;;;;;21.80;43.50;;;;;;693724;28;893;-86
2021/11/11 02:06:55;;;;;;;;;;;21.90;43.60;;;;;;693817;28;869;-89
2021/11/11 02:07:16;;;;;;;;;;;21.90;43.40;;;;;;693755;28;857;-88
2021/11/11 02:07:36;;;;;;;;;;;21.90;43.60;;;;;;693698;28;842;-87
2021/11/11 02:07:57;;;;;;;;;;;21.90;43.60;;;;;;693686;28;818;-89
2021/11/11 02:08:18;;;;;;;;;;;21.80;43.60;;;;;;693844;28;968;-87